Time;durP1;ratioP1;P1;durP2;ratioP2;P2;SDS_P1;SDS_P2;PMS_P1;PMS_P2;Temp;Humidity;BMP_temperature;BMP_pressure;BME280_temperature;BME280_humidity;BME280_pressure;Samples;Min_cycle;Max_cycle;Signal;HPM_P1;HPM_P2
2022/03/15 00:01:11;;;;;;;9.10;3.33;;;8.80;99.90;;;;;;5079617;28;20611;-81
2022/03/15 00:03:38;;;;;;;8.20;3.10;;;8.70;99.90;;;;;;5078416;28;20229;-81
2022/03/15 00:06:05;;;;;;;8.17;3.00;;;8.60;99.90;;;;;;5081268;28;20640;-81
2022/03/15 00:08:33;;;;;;;7.57;3.37;;;8.50;99.90;;;;;;5081011;28;20725;-81
2022/03/15 00:11:04;;;;;;;8.87;3.33;;;8.50;99.90;;;;;;5092310;28;20221;-80
2022/03/15 00:13:31;;;;;;;7.30;3.20;;;8.60;99.90;;;;;;5110158;28;20194;-80
2022/03/15 00:16:00;;;;;;;6.37;2.80;;;8.60;99.90;;;;;;5096709;28;20285;-81
2022/03/15 00:18:29;;;;;;;6.30;3.10;;;8.60;99.90;;;;;;5093841;28;20251;-80
2022/03/15 00:20:56;;;;;;;10.80;4.43;;;8.50;99.90;;;;;;5081130;28;20226;-80
2022/03/15 00:23:23;;;;;;;6.17;3.30;;;8.60;99.90;;;;;;5090375;28;20226;-81
2022/03/15 00:25:51;;;;;;;5.90;2.90;;;8.60;99.90;;;;;;5090097;28;20236;-81
2022/03/15 00:28:19;;;;;;;6.60;2.80;;;8.80;99.90;;;;;;5077730;28;20248;-80
2022/03/15 00:30:46;;;;;;;6.97;3.03;;;8.90;99.90;;;;;;5075399;28;20191;-80
2022/03/15 00:33:13;;;;;;;7.17;2.90;;;9.00;99.90;;;;;;5079751;28;20632;-80
2022/03/15 00:35:40;;;;;;;10.07;3.73;;;8.90;99.90;;;;;;5091444;28;20676;-81
2022/03/15 00:38:07;;;;;;;6.70;3.10;;;8.90;99.90;;;;;;5096991;28;20669;-81
2022/03/15 00:40:34;;;;;;;5.40;2.77;;;8.90;99.90;;;;;;5098445;28;20305;-80
2022/03/15 00:43:04;;;;;;;8.20;3.10;;;8.90;99.90;;;;;;5092346;28;20249;-81
2022/03/15 00:45:31;;;;;;;7.13;3.53;;;8.90;99.90;;;;;;5098131;28;20206;-80
2022/03/15 00:47:58;;;;;;;7.80;3.30;;;8.90;99.90;;;;;;5078922;28;20286;-81
2022/03/15 00:50:28;;;;;;;9.40;3.37;;;8.90;99.90;;;;;;5096955;28;20205;-81
2022/03/15 00:52:55;;;;;;;6.63;3.10;;;8.70;99.90;;;;;;5082870;28;20658;-81
2022/03/15 00:55:22;;;;;;;7.83;3.40;;;8.90;99.90;;;;;;5093567;28;20284;-81
2022/03/15 00:57:49;;;;;;;7.13;3.17;;;8.80;99.90;;;;;;5087724;28;20277;-80
2022/03/15 01:00:19;;;;;;;7.70;3.03;;;8.70;99.90;;;;;;5094527;28;20309;-81
2022/03/15 01:02:46;;;;;;;7.50;3.50;;;8.70;99.90;;;;;;5077707;28;20279;-81
2022/03/15 01:05:13;;;;;;;7.77;2.90;;;8.70;99.90;;;;;;5095620;28;20194;-81
2022/03/15 01:07:40;;;;;;;7.90;3.20;;;8.70;99.90;;;;;;5102007;28;20226;-81
2022/03/15 01:10:07;;;;;;;5.63;3.00;;;8.70;99.90;;;;;;5084057;28;20219;-80
2022/03/15 01:12:34;;;;;;;9.07;3.43;;;8.70;99.90;;;;;;5074637;28;20225;-81
2022/03/15 01:15:02;;;;;;;7.60;3.20;;;8.70;99.90;;;;;;5076713;28;20230;-81
2022/03/15 01:17:30;;;;;;;7.63;3.20;;;8.80;99.90;;;;;;5074118;28;20207;-81
2022/03/15 01:19:57;;;;;;;7.67;3.03;;;8.80;99.90;;;;;;5086745;28;20275;-80
2022/03/15 01:22:24;;;;;;;8.40;3.47;;;8.90;99.90;;;;;;5094269;28;20278;-80
2022/03/15 01:24:51;;;;;;;7.77;2.93;;;8.80;99.90;;;;;;5078463;28;20231;-81
2022/03/15 01:27:19;;;;;;;7.07;3.20;;;8.90;99.90;;;;;;5089322;28;20210;-81
2022/03/15 01:29:46;;;;;;;10.50;3.43;;;8.80;99.90;;;;;;5079660;28;20205;-81
2022/03/15 01:32:13;;;;;;;6.63;3.10;;;8.90;99.90;;;;;;5094340;28;20244;-80
2022/03/15 01:34:41;;;;;;;9.07;3.40;;;8.80;99.90;;;;;;5091559;28;20206;-81
2022/03/15 01:37:08;;;;;;;8.07;3.27;;;8.90;99.90;;;;;;5095583;28;20288;-81
2022/03/15 01:39:36;;;;;;;5.80;3.00;;;9.00;99.90;;;;;;5094400;28;20631;-81
2022/03/15 01:42:04;;;;;;;6.83;3.00;;;9.00;99.90;;;;;;5091235;28;20234;-80
2022/03/15 01:44:33;;;;;;;6.33;3.33;;;9.00;99.90;;;;;;5092719;28;20230;-80
2022/03/15 01:47:01;;;;;;;6.10;3.20;;;8.90;99.90;;;;;;5090897;28;20280;-80
2022/03/15 01:49:28;;;;;;;7.93;3.60;;;9.00;99.90;;;;;;5093057;28;20210;-81
2022/03/15 01:51:56;;;;;;;6.37;3.20;;;9.00;99.90;;;;;;5097584;28;20280;-81
2022/03/15 01:54:24;;;;;;;6.67;3.30;;;8.90;99.90;;;;;;5095620;28;20286;-81
2022/03/15 01:56:51;;;;;;;6.07;3.30;;;8.90;99.90;;;;;;5073280;28;20206;-81
2022/03/15 01:59:18;;;;;;;5.90;3.23;;;9.00;99.90;;;;;;5084609;28;20271;-81
2022/03/15 02:01:46;;;;;;;7.17;3.13;;;8.90;99.90;;;;;;5093990;28;20250;-79
2022/03/15 02:04:15;;;;;;;6.73;3.27;;;9.00;99.90;;;;;;5093214;28;20237;-81
2022/03/15 02:06:44;;;;;;;7.57;3.63;;;9.00;99.90;;;;;;5085375;28;20195;-80
2022/03/15 02:09:14;;;;;;;10.20;3.40;;;8.90;99.90;;;;;;5083534;28;20232;-80
2022/03/15 02:11:41;;;;;;;7.33;3.73;;;9.00;99.90;;;;;;5089470;28;20644;-81
2022/03/15 02:14:08;;;;;;;5.57;3.07;;;9.10;99.90;;;;;;5079892;28;20203;-80
2022/03/15 02:16:35;;;;;;;8.83;3.40;;;9.20;99.90;;;;;;5089514;28;20222;-80
2022/03/15 02:19:04;;;;;;;6.90;3.10;;;9.00;99.90;;;;;;5089728;28;20304;-81
2022/03/15 02:21:34;;;;;;;7.60;3.23;;;9.10;99.90;;;;;;5088864;28;20278;-80
2022/03/15 02:24:01;;;;;;;7.50;3.67;;;9.00;99.90;;;;;;5091460;28;20195;-81
2022/03/15 02:26:27;;;;;;;7.67;3.50;;;9.00;99.90;;;;;;5084439;28;20298;-80
2022/03/15 02:28:55;;;;;;;6.83;3.10;;;9.00;99.90;;;;;;5085074;28;20311;-80
2022/03/15 02:31:22;;;;;;;7.90;3.33;;;8.90;99.90;;;;;;5079011;28;20233;-80
2022/03/15 02:33:49;;;;;;;7.47;3.70;;;8.90;99.90;;;;;;5076191;28;20240;-81
2022/03/15 02:36:16;;;;;;;7.27;3.37;;;8.90;99.90;;;;;;5073352;28;20309;-81
2022/03/15 02:38:46;;;;;;;6.40;3.60;;;9.10;99.90;;;;;;5090143;28;20289;-80
2022/03/15 02:41:14;;;;;;;7.17;3.47;;;9.20;99.90;;;;;;5077363;28;20665;-81
2022/03/15 02:43:44;;;;;;;5.70;3.73;;;9.30;99.90;;;;;;5091390;28;20669;-81
2022/03/15 02:46:12;;;;;;;5.93;3.53;;;9.20;99.90;;;;;;5084836;28;20237;-81
2022/03/15 02:48:39;;;;;;;8.73;3.97;;;9.20;99.90;;;;;;5078695;28;20294;-81
2022/03/15 02:51:08;;;;;;;7.20;3.33;;;9.20;99.90;;;;;;5092783;28;20194;-80
2022/03/15 02:53:35;;;;;;;5.93;3.67;;;9.30;99.90;;;;;;5087106;28;20271;-80
2022/03/15 02:56:04;;;;;;;6.73;3.63;;;9.40;99.90;;;;;;5093255;28;20220;-81
2022/03/15 02:58:32;;;;;;;6.03;3.57;;;9.30;99.90;;;;;;5092305;28;20719;-81
2022/03/15 03:00:58;;;;;;;7.13;3.73;;;9.40;99.90;;;;;;5087628;28;20731;-81
2022/03/15 03:03:25;;;;;;;7.23;3.90;;;9.40;99.90;;;;;;5075877;28;20572;-81
2022/03/15 03:05:52;;;;;;;8.10;3.77;;;9.40;99.90;;;;;;5076370;28;20198;-81
2022/03/15 03:08:22;;;;;;;6.73;3.70;;;9.40;99.90;;;;;;5091348;28;20290;-80
2022/03/15 03:10:49;;;;;;;7.50;3.67;;;9.30;99.90;;;;;;5089812;28;20220;-81
2022/03/15 03:13:17;;;;;;;5.87;3.70;;;9.30;99.90;;;;;;5073210;28;20262;-81
2022/03/15 03:15:44;;;;;;;7.27;3.90;;;9.30;99.90;;;;;;5076743;28;20209;-81
2022/03/15 03:18:11;;;;;;;7.30;3.80;;;9.30;99.90;;;;;;5079745;28;20728;-81
2022/03/15 03:20:38;;;;;;;6.10;3.83;;;9.20;99.90;;;;;;5071145;28;20325;-81
2022/03/15 03:23:05;;;;;;;7.23;4.10;;;9.30;99.90;;;;;;5085033;28;20198;-81
2022/03/15 03:25:35;;;;;;;6.73;3.97;;;9.40;99.90;;;;;;5079137;28;20233;-81
2022/03/15 03:28:03;;;;;;;6.60;3.47;;;9.20;99.90;;;;;;5087285;28;20194;-80
2022/03/15 03:30:32;;;;;;;7.87;3.70;;;9.30;99.90;;;;;;5098769;28;20198;-81
2022/03/15 03:32:59;;;;;;;6.13;4.07;;;9.20;99.90;;;;;;5092249;28;20198;-80
2022/03/15 03:35:25;;;;;;;5.77;3.83;;;9.10;99.90;;;;;;5112691;28;20631;-81
2022/03/15 03:37:52;;;;;;;5.70;4.20;;;9.10;99.90;;;;;;5112179;28;20237;-81
2022/03/15 03:40:19;;;;;;;6.57;3.90;;;9.20;99.90;;;;;;5081998;28;20289;-81
2022/03/15 03:42:46;;;;;;;5.50;3.70;;;9.00;99.90;;;;;;5092135;28;20648;-81
2022/03/15 03:45:13;;;;;;;8.60;4.27;;;9.10;99.90;;;;;;5083356;28;20624;-80
2022/03/15 03:47:41;;;;;;;8.07;4.20;;;9.00;99.90;;;;;;5086685;28;20228;-80
2022/03/15 03:50:09;;;;;;;7.60;4.43;;;8.90;99.90;;;;;;5090445;28;20261;-80
2022/03/15 03:52:36;;;;;;;7.43;4.30;;;9.00;99.90;;;;;;5107142;28;20197;-81
2022/03/15 03:55:04;;;;;;;7.70;4.17;;;8.80;99.90;;;;;;5085063;28;20222;-80
2022/03/15 03:57:30;;;;;;;7.33;4.20;;;8.80;99.90;;;;;;5071745;28;20261;-80
2022/03/15 03:59:57;;;;;;;6.53;3.90;;;8.90;99.90;;;;;;5094179;28;20779;-81
2022/03/15 04:02:26;;;;;;;7.23;4.33;;;8.80;99.90;;;;;;5091075;28;20232;-81
2022/03/15 04:04:54;;;;;;;7.07;4.80;;;8.80;99.90;;;;;;5084637;28;20199;-81
2022/03/15 04:07:21;;;;;;;7.90;4.87;;;8.80;99.90;;;;;;5085285;28;20686;-81
2022/03/15 04:09:48;;;;;;;7.23;4.87;;;8.70;99.90;;;;;;5082311;28;20290;-81
2022/03/15 04:12:19;;;;;;;8.57;5.10;;;8.50;99.90;;;;;;5071192;28;20749;-81
2022/03/15 04:14:46;;;;;;;5.77;4.73;;;8.50;99.90;;;;;;5087768;28;20199;-81
2022/03/15 04:17:14;;;;;;;8.57;5.23;;;8.50;99.90;;;;;;5084663;28;20207;-81
2022/03/15 04:19:41;;;;;;;6.83;5.17;;;8.40;99.90;;;;;;5089884;28;20217;-82
2022/03/15 04:22:09;;;;;;;7.80;5.20;;;8.40;99.90;;;;;;5091617;28;20299;-82
2022/03/15 04:24:36;;;;;;;9.43;5.20;;;8.40;99.90;;;;;;5085709;28;20191;-81
2022/03/15 04:27:04;;;;;;;7.63;5.57;;;8.40;99.90;;;;;;5084145;28;20292;-81
2022/03/15 04:29:31;;;;;;;8.90;5.63;;;8.40;99.90;;;;;;5102486;28;20194;-81
2022/03/15 04:31:58;;;;;;;8.90;5.70;;;8.20;99.90;;;;;;5071440;28;20275;-81
2022/03/15 04:34:25;;;;;;;9.57;5.37;;;8.30;99.90;;;;;;5085930;28;20294;-81
2022/03/15 04:36:52;;;;;;;9.87;5.40;;;8.10;99.90;;;;;;5084089;28;20242;-81
2022/03/15 04:39:21;;;;;;;8.43;5.33;;;8.20;99.90;;;;;;5086375;28;20233;-81
2022/03/15 04:41:48;;;;;;;9.23;5.80;;;8.20;99.90;;;;;;5087608;28;20250;-82
2022/03/15 04:44:14;;;;;;;9.90;5.63;;;8.10;99.90;;;;;;5072181;28;20237;-82
2022/03/15 04:46:41;;;;;;;10.77;5.80;;;8.10;99.90;;;;;;5076744;28;20227;-82
2022/03/15 04:49:09;;;;;;;11.27;6.20;;;8.10;99.90;;;;;;5088099;28;20289;-82
2022/03/15 04:51:36;;;;;;;8.57;5.87;;;8.00;99.90;;;;;;5087836;28;20206;-82
2022/03/15 04:54:03;;;;;;;9.43;6.23;;;8.20;99.90;;;;;;5077984;28;20234;-82
2022/03/15 04:56:31;;;;;;;10.43;6.23;;;7.90;99.90;;;;;;5092639;28;20243;-82
2022/03/15 04:58:58;;;;;;;10.40;6.50;;;7.70;99.90;;;;;;5086760;28;20245;-83
2022/03/15 05:01:25;;;;;;;10.57;6.17;;;7.70;99.90;;;;;;5093937;28;20659;-82
2022/03/15 05:03:52;;;;;;;10.03;6.93;;;7.90;99.90;;;;;;5083153;28;20226;-82
2022/03/15 05:06:19;;;;;;;10.90;6.90;;;7.70;99.90;;;;;;5090840;28;20212;-82
2022/03/15 05:08:48;;;;;;;13.30;7.00;;;7.90;99.90;;;;;;5077358;28;20658;-82
2022/03/15 05:11:14;;;;;;;9.10;6.50;;;7.70;99.90;;;;;;5085005;28;20202;-81
2022/03/15 05:13:45;;;;;;;11.77;7.20;;;7.60;99.90;;;;;;5090700;28;20278;-80
2022/03/15 05:16:16;;;;;;;11.83;7.67;;;7.60;99.90;;;;;;5074325;28;20198;-82
2022/03/15 05:18:45;;;;;;;12.63;7.43;;;7.70;99.90;;;;;;5093713;28;20199;-81
2022/03/15 05:21:16;;;;;;;10.83;7.57;;;7.60;99.90;;;;;;5096664;28;20229;-82
2022/03/15 05:23:43;;;;;;;12.13;7.47;;;7.60;99.90;;;;;;5115097;28;20284;-82
2022/03/15 05:26:11;;;;;;;11.73;7.80;;;7.60;99.90;;;;;;5114471;28;20198;-82
2022/03/15 05:28:38;;;;;;;10.93;7.83;;;7.60;99.90;;;;;;5092689;28;20229;-82
2022/03/15 05:31:07;;;;;;;12.20;8.07;;;7.50;99.90;;;;;;5079128;28;20675;-82
2022/03/15 05:33:34;;;;;;;11.97;7.97;;;7.60;99.90;;;;;;5080930;28;20201;-82
2022/03/15 05:36:02;;;;;;;11.93;7.73;;;7.50;99.90;;;;;;5094609;28;20297;-81
2022/03/15 05:38:28;;;;;;;12.67;8.80;;;7.50;99.90;;;;;;5089941;28;20244;-83
2022/03/15 05:40:56;;;;;;;17.47;8.00;;;7.30;99.90;;;;;;5092292;28;20704;-82
2022/03/15 05:43:23;;;;;;;12.23;8.23;;;7.50;99.90;;;;;;5087895;28;20226;-82
2022/03/15 05:45:50;;;;;;;15.33;8.27;;;7.50;99.90;;;;;;5096210;28;20190;-81
2022/03/15 05:48:19;;;;;;;14.07;8.37;;;7.60;99.90;;;;;;5093564;28;20286;-82
2022/03/15 05:50:46;;;;;;;13.17;8.73;;;7.10;99.90;;;;;;5073546;28;20284;-83
2022/03/15 05:53:13;;;;;;;14.23;8.90;;;7.40;99.90;;;;;;5073809;28;20209;-82
2022/03/15 05:55:40;;;;;;;14.47;9.10;;;7.50;99.90;;;;;;5083015;28;20226;-82
2022/03/15 05:58:07;;;;;;;12.13;8.30;;;7.50;99.90;;;;;;5087868;28;20274;-82
2022/03/15 06:00:34;;;;;;;12.07;8.87;;;7.40;99.90;;;;;;5090486;28;20233;-81
2022/03/15 06:03:01;;;;;;;14.00;9.13;;;7.40;99.90;;;;;;5079117;28;20571;-83
2022/03/15 06:05:30;;;;;;;14.10;9.77;;;7.30;99.90;;;;;;5074387;28;20278;-81
2022/03/15 06:07:58;;;;;;;13.97;9.47;;;7.30;99.90;;;;;;5083574;28;20198;-81
2022/03/15 06:10:28;;;;;;;17.17;9.27;;;7.30;99.90;;;;;;5088530;28;20225;-81
2022/03/15 06:12:56;;;;;;;15.10;9.93;;;7.40;99.90;;;;;;5084754;28;20279;-80
2022/03/15 06:15:23;;;;;;;14.60;9.67;;;7.50;99.90;;;;;;5093336;28;20205;-81
2022/03/15 06:17:52;;;;;;;14.10;10.00;;;7.40;99.90;;;;;;5084009;28;20235;-80
2022/03/15 06:20:20;;;;;;;17.73;10.17;;;7.60;99.90;;;;;;5118423;27;20238;-84
2022/03/15 06:22:49;;;;;;;14.43;9.83;;;7.30;99.90;;;;;;5087380;28;20215;-85
2022/03/15 06:25:16;;;;;;;16.10;9.93;;;7.30;99.90;;;;;;5073320;28;20225;-83
2022/03/15 06:27:44;;;;;;;14.17;10.03;;;7.60;99.90;;;;;;5075949;28;20234;-83
2022/03/15 06:30:12;;;;;;;14.63;10.63;;;7.40;99.90;;;;;;5079207;28;20195;-84
2022/03/15 06:32:52;;;;;;;15.57;10.27;;;7.40;99.90;;;;;;5093439;28;20674;-83
2022/03/15 06:35:19;;;;;;;15.03;10.30;;;7.30;99.90;;;;;;5099731;28;20202;-83
2022/03/15 06:37:50;;;;;;;14.37;10.43;;;7.40;99.90;;;;;;5092008;28;20213;-83
2022/03/15 06:40:21;;;;;;;14.37;10.30;;;7.60;99.90;;;;;;5089803;28;20215;-84
2022/03/15 06:42:49;;;;;;;13.50;9.60;;;7.60;99.90;;;;;;5092573;28;20229;-82
2022/03/15 06:45:16;;;;;;;16.23;10.20;;;7.40;99.90;;;;;;5095863;28;20240;-84
2022/03/15 06:47:43;;;;;;;15.70;11.10;;;7.60;99.90;;;;;;5092230;28;20236;-82
2022/03/15 06:50:12;;;;;;;14.33;11.27;;;7.40;99.90;;;;;;5092785;28;20626;-80
2022/03/15 06:52:39;;;;;;;16.80;11.40;;;7.40;99.90;;;;;;5079966;28;20257;-80
2022/03/15 06:55:10;;;;;;;14.03;10.83;;;7.50;99.90;;;;;;5088275;28;20698;-81
2022/03/15 06:57:38;;;;;;;15.60;9.67;;;7.50;99.90;;;;;;5089453;28;20235;-82
2022/03/15 07:00:06;;;;;;;15.43;11.07;;;7.60;99.90;;;;;;5087705;28;20253;-83
2022/03/15 07:02:33;;;;;;;15.90;11.13;;;7.50;99.90;;;;;;5088447;28;20246;-82
2022/03/15 07:05:00;;;;;;;14.27;11.67;;;7.60;99.90;;;;;;5090741;28;20194;-82
2022/03/15 07:07:27;;;;;;;12.30;10.43;;;7.50;99.90;;;;;;5089030;28;20291;-82
2022/03/15 07:09:54;;;;;;;13.47;9.70;;;7.50;99.90;;;;;;5089739;28;20222;-82
2022/03/15 07:12:24;;;;;;;13.57;10.00;;;7.60;99.90;;;;;;5087236;28;20225;-80
2022/03/15 07:14:51;;;;;;;14.47;10.60;;;7.50;99.90;;;;;;5078829;28;20194;-83
2022/03/15 07:17:19;;;;;;;13.37;10.43;;;7.60;99.90;;;;;;5086050;28;20226;-82
2022/03/15 07:19:46;;;;;;;14.70;10.40;;;7.60;99.90;;;;;;5082611;28;20197;-83
2022/03/15 07:22:13;;;;;;;16.10;11.13;;;7.50;99.90;;;;;;5087004;28;20720;-83
2022/03/15 07:24:40;;;;;;;14.57;11.17;;;7.50;99.90;;;;;;5088379;28;20289;-82
2022/03/15 07:27:07;;;;;;;14.83;11.67;;;7.60;99.90;;;;;;5082833;28;20225;-83
2022/03/15 07:29:35;;;;;;;14.40;10.80;;;7.60;99.90;;;;;;5088430;28;20202;-83
2022/03/15 07:32:02;;;;;;;14.17;10.73;;;7.60;99.90;;;;;;5086935;28;20200;-83
2022/03/15 07:34:29;;;;;;;15.43;11.40;;;7.60;99.90;;;;;;5086023;28;20686;-83
2022/03/15 07:36:56;;;;;;;15.93;11.60;;;7.60;99.90;;;;;;5092074;28;20254;-81
2022/03/15 07:39:23;;;;;;;15.63;11.87;;;7.70;99.90;;;;;;5090763;28;20305;-83
2022/03/15 07:41:50;;;;;;;14.50;10.57;;;7.60;99.90;;;;;;5086894;28;20229;-83
2022/03/15 07:44:17;;;;;;;13.20;10.27;;;7.60;99.90;;;;;;5088791;28;20198;-82
2022/03/15 07:46:48;;;;;;;13.43;10.50;;;7.60;99.90;;;;;;5089342;28;20293;-82
2022/03/15 07:49:16;;;;;;;14.53;10.77;;;7.70;99.90;;;;;;5087843;28;20204;-82
2022/03/15 07:51:43;;;;;;;13.57;9.93;;;7.70;99.90;;;;;;5087881;28;20200;-83
2022/03/15 07:54:10;;;;;;;14.47;10.87;;;7.70;99.90;;;;;;5087845;28;20223;-82
2022/03/15 07:56:37;;;;;;;14.13;10.97;;;7.70;99.90;;;;;;5090415;28;20328;-83
2022/03/15 07:59:04;;;;;;;13.77;10.10;;;7.80;99.90;;;;;;5082611;28;20223;-83
2022/03/15 08:01:31;;;;;;;14.97;11.07;;;7.80;99.90;;;;;;5083724;28;20569;-82
2022/03/15 08:03:59;;;;;;;14.00;10.63;;;7.80;99.90;;;;;;5077800;28;20223;-83
2022/03/15 08:06:26;;;;;;;15.03;10.27;;;7.90;99.90;;;;;;5084151;28;20279;-83
2022/03/15 08:08:57;;;;;;;13.17;10.60;;;7.90;99.90;;;;;;5086250;28;20239;-83
2022/03/15 08:11:24;;;;;;;14.27;10.60;;;7.90;99.90;;;;;;5081935;28;20205;-83
2022/03/15 08:13:53;;;;;;;11.40;9.20;;;8.00;99.90;;;;;;5088631;28;20614;-82
2022/03/15 08:16:22;;;;;;;12.67;9.70;;;8.00;99.90;;;;;;5088305;28;20288;-83
2022/03/15 08:18:50;;;;;;;13.70;10.43;;;8.00;99.90;;;;;;5077727;28;20230;-83
2022/03/15 08:21:18;;;;;;;13.23;9.97;;;8.10;99.90;;;;;;5087753;28;20227;-83
2022/03/15 08:23:46;;;;;;;13.57;11.00;;;8.20;99.90;;;;;;5089995;28;20231;-83
2022/03/15 08:26:15;;;;;;;15.53;10.50;;;8.20;99.90;;;;;;5094976;28;20234;-83
2022/03/15 08:28:42;;;;;;;13.63;11.23;;;8.30;99.90;;;;;;5089132;28;20312;-83
2022/03/15 08:31:09;;;;;;;13.20;11.00;;;8.20;99.90;;;;;;5089154;28;20277;-83
2022/03/15 08:33:36;;;;;;;13.67;10.97;;;8.30;99.90;;;;;;5091749;28;20644;-83
2022/03/15 08:36:03;;;;;;;14.60;11.17;;;8.40;99.90;;;;;;5081345;28;20221;-83
2022/03/15 08:38:31;;;;;;;13.63;10.77;;;8.30;99.90;;;;;;5085562;28;20209;-83
2022/03/15 08:40:58;;;;;;;14.97;11.20;;;8.30;99.90;;;;;;5091712;28;20201;-83
2022/03/15 08:43:26;;;;;;;15.07;11.03;;;8.30;99.90;;;;;;5093138;28;20249;-83
2022/03/15 08:45:53;;;;;;;15.17;10.67;;;8.40;99.90;;;;;;5085064;28;20282;-82
2022/03/15 08:48:21;;;;;;;14.23;11.37;;;8.40;99.90;;;;;;5092543;28;20745;-83
2022/03/15 08:50:48;;;;;;;15.10;10.97;;;8.40;99.90;;;;;;5091768;28;20206;-83
2022/03/15 08:53:15;;;;;;;15.17;10.83;;;8.60;99.90;;;;;;5092490;28;20218;-83
2022/03/15 08:55:43;;;;;;;14.10;10.90;;;8.60;99.90;;;;;;5087163;28;20199;-83
2022/03/15 08:58:10;;;;;;;17.00;11.13;;;8.60;99.90;;;;;;5096820;28;20256;-83
2022/03/15 09:00:37;;;;;;;15.10;10.63;;;8.60;99.90;;;;;;5091817;28;20284;-84
2022/03/15 09:03:05;;;;;;;13.73;10.60;;;8.70;99.90;;;;;;5092422;28;20324;-83
2022/03/15 09:05:31;;;;;;;15.87;11.80;;;8.70;99.90;;;;;;5093443;28;20278;-84
2022/03/15 09:07:59;;;;;;;14.23;10.63;;;8.80;99.90;;;;;;5081121;28;20195;-82
2022/03/15 09:10:26;;;;;;;15.10;10.93;;;8.80;99.90;;;;;;5080682;28;20556;-83
2022/03/15 09:12:54;;;;;;;12.83;10.50;;;8.80;99.90;;;;;;5088966;28;20228;-83
2022/03/15 09:15:22;;;;;;;14.93;10.97;;;8.80;99.90;;;;;;5086585;28;20242;-83
2022/03/15 09:17:49;;;;;;;15.17;11.40;;;8.90;99.90;;;;;;5091165;28;20198;-83
2022/03/15 09:20:17;;;;;;;17.53;11.23;;;8.90;99.90;;;;;;5090847;28;20240;-83
2022/03/15 09:22:44;;;;;;;16.57;11.83;;;8.90;99.90;;;;;;5089263;28;20219;-83
2022/03/15 09:25:11;;;;;;;17.17;11.77;;;9.00;99.90;;;;;;5089550;28;20274;-84
2022/03/15 09:27:38;;;;;;;14.57;11.70;;;9.00;99.90;;;;;;5092826;28;20201;-84
2022/03/15 09:30:07;;;;;;;16.17;11.63;;;9.10;99.90;;;;;;5083186;28;20281;-84
2022/03/15 09:32:34;;;;;;;15.27;11.03;;;9.10;99.90;;;;;;5089887;28;20288;-83
2022/03/15 09:35:01;;;;;;;14.40;11.00;;;9.00;99.90;;;;;;5088270;28;20202;-83
2022/03/15 09:37:28;;;;;;;14.10;10.10;;;9.10;99.90;;;;;;5087822;28;20229;-83
2022/03/15 09:39:57;;;;;;;15.43;11.07;;;9.20;99.90;;;;;;5092536;28;20230;-84
2022/03/15 09:42:26;;;;;;;13.23;9.83;;;9.30;99.90;;;;;;5088912;28;20247;-82
2022/03/15 09:44:55;;;;;;;13.53;10.07;;;9.30;99.90;;;;;;5080494;28;20238;-83
2022/03/15 09:47:30;;;;;;;14.47;10.10;;;9.30;99.90;;;;;;5091753;28;20283;-82
2022/03/15 09:49:58;;;;;;;13.30;9.70;;;9.30;99.90;;;;;;5091779;28;20283;-83
2022/03/15 09:52:28;;;;;;;12.30;8.80;;;9.30;99.90;;;;;;5090459;28;20201;-84
2022/03/15 09:54:56;;;;;;;12.70;9.10;;;9.40;99.90;;;;;;5086019;28;20282;-84
2022/03/15 09:57:23;;;;;;;12.07;8.77;;;9.60;99.90;;;;;;5080216;28;20290;-83
2022/03/15 09:59:51;;;;;;;11.33;8.50;;;9.70;99.90;;;;;;5081627;28;20313;-83
2022/03/15 10:02:19;;;;;;;9.33;8.00;;;9.60;99.90;;;;;;5089031;28;20624;-83
2022/03/15 10:04:50;;;;;;;10.67;7.70;;;9.80;99.90;;;;;;5090142;28;20267;-83
2022/03/15 10:07:17;;;;;;;12.03;7.93;;;9.80;99.90;;;;;;5087398;28;20202;-83
2022/03/15 10:09:44;;;;;;;9.77;8.47;;;9.90;99.90;;;;;;5089068;28;20290;-82
2022/03/15 10:12:11;;;;;;;10.60;7.90;;;10.10;99.90;;;;;;5082210;28;20781;-84
2022/03/15 10:14:42;;;;;;;9.70;7.70;;;10.20;99.90;;;;;;5084039;28;20202;-83
2022/03/15 10:17:11;;;;;;;8.90;7.13;;;10.30;99.90;;;;;;5091354;28;20297;-83
2022/03/15 10:19:39;;;;;;;9.77;7.77;;;10.30;99.90;;;;;;5089505;28;20647;-83
2022/03/15 10:22:10;;;;;;;9.63;7.67;;;10.50;99.90;;;;;;5084950;28;20233;-83
2022/03/15 10:24:39;;;;;;;8.80;7.17;;;10.60;99.90;;;;;;5091153;28;20301;-84
2022/03/15 10:27:08;;;;;;;10.60;7.13;;;10.90;99.90;;;;;;5084267;28;20360;-84
2022/03/15 10:29:36;;;;;;;7.77;6.50;;;11.10;99.90;;;;;;5088759;28;20244;-82
2022/03/15 10:32:04;;;;;;;8.70;6.30;;;11.10;99.90;;;;;;5089101;28;20541;-83
2022/03/15 10:34:31;;;;;;;8.97;6.73;;;10.90;99.90;;;;;;5090656;28;20195;-82
2022/03/15 10:36:59;;;;;;;9.70;7.27;;;10.90;99.90;;;;;;5089686;28;20284;-84
2022/03/15 10:39:28;;;;;;;9.90;7.47;;;11.20;99.90;;;;;;5092373;28;20207;-86
2022/03/15 10:41:58;;;;;;;9.67;7.17;;;11.10;99.90;;;;;;5079200;28;20285;-88
2022/03/15 10:44:28;;;;;;;7.97;6.73;;;11.00;99.90;;;;;;5092019;28;20218;-86
2022/03/15 10:47:08;;;;;;;8.13;7.10;;;11.20;99.90;;;;;;5094591;28;20194;-84
2022/03/15 10:49:47;;;;;;;8.40;7.17;;;11.50;99.90;;;;;;5088866;28;20230;-82
2022/03/15 10:52:15;;;;;;;7.83;6.73;;;11.70;99.90;;;;;;5090709;28;20198;-86
2022/03/15 10:54:45;;;;;;;8.57;6.83;;;11.80;99.90;;;;;;5091051;28;20592;-85
2022/03/15 10:57:12;;;;;;;9.07;7.00;;;11.80;99.90;;;;;;5083806;28;20194;-84
2022/03/15 10:59:43;;;;;;;7.77;6.77;;;11.60;99.90;;;;;;5083804;28;20283;-83
2022/03/15 11:02:12;;;;;;;8.30;7.03;;;11.70;99.90;;;;;;5088861;28;20230;-83
2022/03/15 11:04:47;;;;;;;8.77;7.50;;;12.00;99.90;;;;;;5076914;28;20222;-82
2022/03/15 11:07:16;;;;;;;8.60;7.30;;;12.30;99.90;;;;;;5081761;28;20280;-82
2022/03/15 11:09:44;;;;;;;8.03;6.57;;;12.80;99.90;;;;;;5087545;28;20206;-82
2022/03/15 11:12:11;;;;;;;8.47;6.70;;;13.20;99.90;;;;;;5090083;28;20218;-82
2022/03/15 11:14:40;;;;;;;8.47;7.10;;;12.90;99.90;;;;;;5090632;28;20233;-83
2022/03/15 11:17:16;;;;;;;8.43;6.07;;;12.70;99.90;;;;;;5090786;28;20198;-84
2022/03/15 11:19:46;;;;;;;8.10;6.60;;;12.50;99.90;;;;;;5089000;28;20342;-84
2022/03/15 11:22:15;;;;;;;7.87;7.07;;;12.90;99.90;;;;;;5089844;28;20315;-83
2022/03/15 11:24:50;;;;;;;9.10;6.40;;;13.20;99.90;;;;;;5089610;28;20264;-83
2022/03/15 11:27:19;;;;;;;6.70;5.97;;;13.60;99.90;;;;;;5089826;28;20243;-82
2022/03/15 11:29:46;;;;;;;6.57;5.97;;;13.40;99.90;;;;;;5091704;28;20237;-82
2022/03/15 11:32:14;;;;;;;8.47;5.97;;;13.40;99.90;;;;;;5085904;28;20281;-83
2022/03/15 11:34:42;;;;;;;7.90;6.27;;;13.50;99.90;;;;;;5090174;28;20680;-83
2022/03/15 11:37:11;;;;;;;6.87;5.70;;;13.70;99.90;;;;;;5090863;28;20202;-83
2022/03/15 11:39:38;;;;;;;7.17;6.47;;;14.00;99.90;;;;;;5089044;28;20202;-82
2022/03/15 11:42:10;;;;;;;9.17;5.90;;;13.70;99.90;;;;;;5090099;28;20247;-82
2022/03/15 11:44:49;;;;;;;8.30;6.00;;;13.20;99.90;;;;;;5085406;28;20218;-82
2022/03/15 11:47:26;;;;;;;9.67;5.87;;;13.40;99.90;;;;;;5084908;28;20226;-82
2022/03/15 11:50:00;;;;;;;8.77;6.00;;;13.00;99.90;;;;;;5084287;28;20298;-83
2022/03/15 11:52:33;;;;;;;9.60;6.20;;;12.80;99.90;;;;;;5085261;28;20210;-82
2022/03/15 11:55:11;;;;;;;10.03;5.90;;;12.70;99.90;;;;;;5086191;28;20213;-83
2022/03/15 11:57:45;;;;;;;8.97;6.07;;;12.80;99.90;;;;;;5084325;28;20696;-82
2022/03/15 12:00:12;;;;;;;8.53;5.63;;;12.90;99.90;;;;;;5074280;28;20769;-82
2022/03/15 12:02:41;;;;;;;8.20;6.37;;;13.00;99.90;;;;;;5076777;28;20290;-84
2022/03/15 12:05:17;;;;;;;9.63;5.87;;;12.90;99.90;;;;;;5091353;28;20314;-83
2022/03/15 12:07:46;;;;;;;8.10;6.63;;;12.80;99.90;;;;;;5092757;28;20194;-82
2022/03/15 12:10:24;;;;;;;9.30;6.70;;;12.80;99.90;;;;;;5082943;28;20201;-83
2022/03/15 12:13:02;;;;;;;8.63;7.03;;;13.30;99.90;;;;;;5083017;28;20190;-82
2022/03/15 12:15:35;;;;;;;8.20;6.00;;;13.60;99.90;;;;;;5080764;28;20735;-83
2022/03/15 12:18:09;;;;;;;7.43;5.93;;;13.30;99.90;;;;;;5094920;28;20197;-83
2022/03/15 12:20:48;;;;;;;10.07;6.80;;;13.50;99.90;;;;;;5094533;28;20241;-83
2022/03/15 12:23:22;;;;;;;9.80;7.13;;;13.40;99.90;;;;;;5087959;28;20202;-82
2022/03/15 12:25:54;;;;;;;7.97;6.30;;;13.80;99.90;;;;;;5077132;28;20278;-82
2022/03/15 12:28:28;;;;;;;7.40;5.80;;;13.80;99.90;;;;;;5083647;28;20202;-83
2022/03/15 12:31:03;;;;;;;7.03;5.93;;;14.00;99.90;;;;;;5075516;28;20207;-83
2022/03/15 12:33:30;;;;;;;8.47;6.27;;;13.90;99.90;;;;;;5075038;28;20226;-83
2022/03/15 12:36:04;;;;;;;11.07;6.17;;;13.90;99.90;;;;;;5086310;28;20226;-82
2022/03/15 12:38:36;;;;;;;7.60;5.80;;;13.90;99.90;;;;;;5088196;28;20714;-82
2022/03/15 12:41:04;;;;;;;8.53;6.37;;;13.90;99.90;;;;;;5088815;28;20219;-83
2022/03/15 12:43:33;;;;;;;8.37;6.50;;;14.10;99.90;;;;;;5108010;28;20202;-82
2022/03/15 12:46:01;;;;;;;9.60;6.23;;;14.30;99.90;;;;;;5094730;28;20630;-83
2022/03/15 12:48:30;;;;;;;7.90;6.63;;;14.80;99.90;;;;;;5091423;28;20203;-82
2022/03/15 12:50:59;;;;;;;8.80;6.37;;;14.20;99.90;;;;;;5078579;28;20199;-83
2022/03/15 12:53:36;;;;;;;8.03;6.20;;;14.40;99.90;;;;;;5083232;28;20199;-83